Time;durP1;ratioP1;P1;durP2;ratioP2;P2;SDS_P1;SDS_P2;PMS_P1;PMS_P2;Temp;Humidity;BMP_temperature;BMP_pressure;BME280_temperature;BME280_humidity;BME280_pressure;Samples;Min_cycle;Max_cycle;Signal;HPM_P1;HPM_P2
2024/01/18 00:00:03;;;;;;;2.90;1.00;;;;;;;-145.69;62.26;52250.31;5133723;27;20295;-81
2024/01/18 00:02:30;;;;;;;1.90;0.67;;;;;;;-145.69;62.09;52280.00;5133821;27;20250;-80
2024/01/18 00:04:57;;;;;;;0.73;0.73;;;;;;;-145.69;61.76;52289.91;5133877;27;20647;-81
2024/01/18 00:07:25;;;;;;;1.47;0.80;;;;;;;-145.69;61.59;52268.13;5133975;27;20200;-79
2024/01/18 00:09:51;;;;;;;0.77;0.77;;;;;;;-145.69;61.72;52278.03;5137207;27;20280;-80
2024/01/18 00:12:18;;;;;;;0.97;0.80;;;;;;;-145.69;61.61;52240.41;5133776;27;20208;-79
2024/01/18 00:14:44;;;;;;;0.80;0.80;;;;;;;-145.69;61.95;52262.19;5133894;27;20225;-79
2024/01/18 00:17:11;;;;;;;0.70;0.70;;;;;;;-145.69;62.01;52278.03;5133580;27;20207;-79
2024/01/18 00:19:37;;;;;;;1.77;0.80;;;;;;;-145.69;62.14;52303.78;5133515;27;20642;-79
2024/01/18 00:22:09;;;;;;;1.03;0.70;;;;;;;-145.69;62.62;52285.97;5133539;27;20201;-81
2024/01/18 00:24:37;;;;;;;1.63;0.80;;;;;;;-145.69;62.54;52289.91;5133711;27;20250;-80
2024/01/18 00:27:04;;;;;;;0.80;0.80;;;;;;;-145.69;62.94;52295.84;5133608;27;20200;-80
2024/01/18 00:29:31;;;;;;;0.70;0.70;;;;;;;-145.69;62.63;52295.84;5140558;27;20192;-80
2024/01/18 00:31:57;;;;;;;0.50;0.50;;;;;;;-145.69;62.78;52285.97;5158837;27;20654;-80
2024/01/18 00:34:27;;;;;;;1.00;0.83;;;;;;;-145.69;62.87;52285.97;5158654;27;20227;-79
2024/01/18 00:36:53;;;;;;;0.90;0.67;;;;;;;-145.69;62.76;52283.97;5152729;27;20296;-80
2024/01/18 00:39:21;;;;;;;0.60;0.60;;;;;;;-145.69;62.64;52295.84;5140498;27;20203;-79
2024/01/18 00:41:55;;;;;;;1.83;0.60;;;;;;;-145.69;63.17;52285.97;5150897;27;20184;-79
2024/01/18 00:44:25;;;;;;;0.77;0.75;;;;;;;-145.69;62.74;52299.81;5137996;27;20620;-79
2024/01/18 00:46:53;;;;;;;0.83;0.60;;;;;;;-145.69;63.20;52297.84;5137712;27;20220;-79
2024/01/18 00:49:19;;;;;;;0.80;0.73;;;;;;;-145.69;63.24;52293.88;5137683;27;20196;-81
2024/01/18 00:51:47;;;;;;;0.53;0.53;;;;;;;-145.69;63.31;52270.13;5137542;27;20196;-80
2024/01/18 00:54:14;;;;;;;2.50;0.80;;;;;;;-145.69;63.08;52280.00;5137722;27;20591;-81
2024/01/18 00:56:40;;;;;;;0.87;0.87;;;;;;;-145.69;63.02;52260.22;5137505;27;20192;-80
2024/01/18 00:59:11;;;;;;;1.13;0.87;;;;;;;-145.69;62.65;52280.00;5138554;27;20197;-80
2024/01/18 01:01:37;;;;;;;0.50;0.50;;;;;;;-145.69;62.56;52278.03;5158275;27;20211;-80
2024/01/18 01:04:04;;;;;;;0.50;0.50;;;;;;;-145.69;62.44;52256.25;5157918;27;20195;-79
2024/01/18 01:06:31;;;;;;;1.40;0.97;;;;;;;-145.69;62.80;52282.00;5139765;27;20210;-80
2024/01/18 01:08:59;;;;;;;1.90;0.80;;;;;;;-145.69;62.89;52293.88;5137456;27;20197;-80
2024/01/18 01:11:26;;;;;;;0.80;0.70;;;;;;;-145.69;62.65;52270.13;5132707;27;20224;-80
2024/01/18 01:13:53;;;;;;;0.80;0.80;;;;;;;-145.69;62.96;52270.13;5137005;27;20265;-80
2024/01/18 01:16:21;;;;;;;0.60;0.60;;;;;;;-145.69;62.76;52291.91;5136697;27;20272;-80
2024/01/18 01:18:48;;;;;;;1.43;0.80;;;;;;;-145.69;62.96;52285.97;5137017;27;20205;-79
2024/01/18 01:21:17;;;;;;;2.83;0.80;;;;;;;-145.69;62.62;52317.66;5136418;27;20196;-79
2024/01/18 01:23:48;;;;;;;0.70;0.70;;;;;;;-145.69;62.36;52262.19;5137005;27;20235;-80
2024/01/18 01:26:17;;;;;;;1.87;0.80;;;;;;;-145.69;62.35;52289.91;5136889;27;20220;-80
2024/01/18 01:28:44;;;;;;;0.80;0.80;;;;;;;-145.69;62.59;52321.59;5137111;27;20207;-79
2024/01/18 01:31:11;;;;;;;0.83;0.80;;;;;;;-145.69;62.62;52301.81;5135872;27;20197;-80
2024/01/18 01:33:41;;;;;;;1.33;0.73;;;;;;;-145.69;63.09;52278.03;5136862;27;20217;-80
2024/01/18 01:36:08;;;;;;;0.80;0.80;;;;;;;-145.69;62.94;52289.91;5136873;27;20287;-80
2024/01/18 01:38:37;;;;;;;2.43;0.80;;;;;;;-145.69;62.82;52301.81;5136667;27;20659;-80
2024/01/18 01:41:03;;;;;;;1.40;1.00;;;;;;;-145.69;62.94;52295.84;5155287;27;20195;-80
2024/01/18 01:43:31;;;;;;;4.40;0.83;;;;;;;-145.69;63.06;52293.88;5147156;27;20200;-80
2024/01/18 01:45:57;;;;;;;1.07;0.70;;;;;;;-145.69;63.11;52282.00;5136232;27;20678;-80
2024/01/18 01:48:24;;;;;;;2.22;0.90;;;;;;;-145.69;62.55;52323.59;5136237;27;20749;-80
2024/01/18 01:50:52;;;;;;;5.37;1.00;;;;;;;-145.69;63.00;52309.72;5140569;27;20189;-79
2024/01/18 01:53:21;;;;;;;2.13;0.93;;;;;;;-145.69;63.17;52301.81;5135214;27;20224;-79
2024/01/18 01:55:48;;;;;;;2.80;0.80;;;;;;;-145.69;62.86;52276.06;5136432;27;20201;-80
2024/01/18 01:58:17;;;;;;;2.40;0.83;;;;;;;-145.69;62.49;52309.72;5135998;27;20197;-80
2024/01/18 02:00:44;;;;;;;1.63;0.73;;;;;;;-145.69;63.00;52256.25;5150453;27;20191;-79
2024/01/18 02:03:11;;;;;;;1.57;0.70;;;;;;;-145.69;62.66;52301.81;5157086;27;20200;-80
2024/01/18 02:05:39;;;;;;;2.10;1.10;;;;;;;-145.69;62.75;52317.66;5157127;27;20200;-80
2024/01/18 02:08:07;;;;;;;5.20;0.97;;;;;;;-145.69;62.59;52309.72;5151225;27;20197;-80
2024/01/18 02:10:35;;;;;;;0.90;0.80;;;;;;;-145.69;62.87;52297.84;5135813;27;20228;-81
2024/01/18 02:13:04;;;;;;;4.70;0.80;;;;;;;-145.69;62.92;52270.13;5136089;27;20197;-79
2024/01/18 02:15:38;;;;;;;1.70;1.10;;;;;;;-145.69;62.55;52266.16;5136195;27;20200;-80
2024/01/18 02:18:05;;;;;;;3.03;1.00;;;;;;;-145.69;62.42;52289.91;5135977;27;20208;-80
2024/01/18 02:20:31;;;;;;;1.08;0.80;;;;;;;-145.69;62.13;52283.97;5135520;27;20238;-80
2024/01/18 02:23:02;;;;;;;3.03;0.80;;;;;;;-145.69;62.01;52270.13;5135941;27;20205;-80
2024/01/18 02:25:30;;;;;;;1.13;0.70;;;;;;;-145.69;62.49;52276.06;5135586;27;20196;-80
2024/01/18 02:27:57;;;;;;;3.03;0.70;;;;;;;-145.69;61.84;52270.13;5135940;27;20201;-80
2024/01/18 02:30:23;;;;;;;2.03;0.90;;;;;;;-145.69;61.97;52258.22;5134938;27;20196;-81
2024/01/18 02:32:53;;;;;;;4.37;1.00;;;;;;;-145.69;61.68;52287.94;5133569;27;20563;-80
2024/01/18 02:35:21;;;;;;;3.83;1.00;;;;;;;-145.69;62.30;52285.97;5135247;27;20225;-80
2024/01/18 02:37:49;;;;;;;1.10;0.80;;;;;;;-145.69;61.54;52287.94;5135444;27;20651;-80
2024/01/18 02:40:15;;;;;;;2.60;0.80;;;;;;;-145.69;61.63;52305.75;5135101;27;20203;-80
2024/01/18 02:42:43;;;;;;;1.52;0.80;;;;;;;-145.69;62.14;52299.81;5135477;27;20226;-79
2024/01/18 02:45:10;;;;;;;2.57;1.00;;;;;;;-145.69;62.54;52285.97;5135201;27;20750;-80
2024/01/18 02:47:36;;;;;;;0.67;0.63;;;;;;;-145.69;62.24;52274.06;5134959;27;20713;-80
2024/01/18 02:50:03;;;;;;;2.70;1.00;;;;;;;-145.69;61.96;52289.91;5135220;27;20189;-80
2024/01/18 02:52:38;;;;;;;3.40;0.87;;;;;;;-145.69;62.18;52321.59;5134640;27;20207;-79
2024/01/18 02:55:05;;;;;;;2.93;0.80;;;;;;;-145.69;62.81;52293.88;5135858;27;20219;-80
2024/01/18 02:57:32;;;;;;;2.20;1.20;;;;;;;-145.69;63.01;52285.97;5138463;27;20192;-80
2024/01/18 03:00:00;;;;;;;3.57;0.70;;;;;;;-145.69;62.62;52262.19;5136063;27;20300;-80
2024/01/18 03:02:26;;;;;;;3.08;0.80;;;;;;;-145.69;62.62;52289.91;5135149;27;20200;-80
2024/01/18 03:04:53;;;;;;;1.80;0.70;;;;;;;-145.69;62.70;52321.59;5134972;27;20354;-80
2024/01/18 03:07:20;;;;;;;2.07;0.70;;;;;;;-145.69;62.96;52270.13;5134590;27;20316;-80
2024/01/18 03:09:47;;;;;;;1.50;1.20;;;;;;;-145.69;63.00;52289.91;5134888;27;20644;-80
2024/01/18 03:12:16;;;;;;;1.83;0.90;;;;;;;-145.69;63.14;52289.91;5135053;27;20232;-80
2024/01/18 03:14:42;;;;;;;1.10;0.83;;;;;;;-145.69;63.04;52299.81;5134770;27;20228;-80
2024/01/18 03:17:10;;;;;;;3.33;1.10;;;;;;;-145.69;63.81;52297.84;5134942;27;20200;-79
2024/01/18 03:19:36;;;;;;;5.07;1.17;;;;;;;-145.69;63.71;52252.28;5134212;27;20193;-80
2024/01/18 03:22:03;;;;;;;0.73;0.70;;;;;;;-145.69;63.99;52305.75;5134744;27;20204;-80
2024/01/18 03:24:30;;;;;;;4.83;0.90;;;;;;;-145.69;64.69;52297.84;5132061;27;20204;-80
2024/01/18 03:26:56;;;;;;;1.33;0.80;;;;;;;-145.69;64.63;52282.00;5114007;28;20201;-80
2024/01/18 03:29:22;;;;;;;3.33;0.77;;;;;;;-145.69;64.01;52317.66;5131721;27;20208;-80
2024/01/18 03:31:52;;;;;;;1.47;0.70;;;;;;;-145.69;64.12;52297.84;5134681;27;20197;-80
2024/01/18 03:34:22;;;;;;;0.90;0.90;;;;;;;-145.69;63.85;52293.88;5133883;27;20246;-80
2024/01/18 03:36:49;;;;;;;3.77;1.10;;;;;;;-145.69;64.19;52301.81;5134641;27;20207;-80
2024/01/18 03:39:18;;;;;;;1.00;0.80;;;;;;;-145.69;63.70;52299.81;5134289;27;20667;-80
2024/01/18 03:41:44;;;;;;;2.33;0.80;;;;;;;-145.69;64.26;52289.91;5134425;27;20208;-80
2024/01/18 03:44:13;;;;;;;1.47;0.60;;;;;;;-145.69;64.66;52299.81;5134060;27;20193;-80
2024/01/18 03:46:40;;;;;;;3.13;0.80;;;;;;;-145.69;64.29;52309.72;5134041;27;20231;-80
2024/01/18 03:49:09;;;;;;;5.57;0.83;;;;;;;-145.69;64.67;52313.69;5134012;27;20193;-81
2024/01/18 03:51:37;;;;;;;3.03;0.80;;;;;;;-145.69;64.76;52295.84;5134388;27;20207;-80
2024/01/18 03:54:03;;;;;;;1.07;0.60;;;;;;;-145.69;64.42;52319.63;5134202;27;20225;-81
2024/01/18 03:56:39;;;;;;;1.77;0.80;;;;;;;-145.69;64.19;52303.78;5134326;27;20228;-81
2024/01/18 03:59:05;;;;;;;2.90;0.97;;;;;;;-145.69;64.44;52331.50;5134538;27;20277;-80
2024/01/18 04:01:39;;;;;;;2.50;0.80;;;;;;;-145.69;64.39;52313.69;5134102;27;20289;-80
2024/01/18 04:04:06;;;;;;;2.73;1.17;;;;;;;-145.69;64.56;52297.84;5133290;27;20208;-81
2024/01/18 04:06:33;;;;;;;3.63;0.93;;;;;;;-145.69;64.31;52287.94;5134175;27;20200;-80
2024/01/18 04:09:01;;;;;;;1.70;1.20;;;;;;;-145.69;64.44;52309.72;5133380;27;20189;-81
2024/01/18 04:11:28;;;;;;;3.20;1.23;;;;;;;-145.69;64.85;52297.84;5134124;27;20208;-81
2024/01/18 04:13:54;;;;;;;4.63;1.40;;;;;;;-145.69;65.29;52321.59;5133967;27;20205;-80
2024/01/18 04:16:21;;;;;;;3.03;1.70;;;;;;;-145.69;65.22;52278.03;5133900;27;20189;-80
2024/01/18 04:18:48;;;;;;;3.13;1.40;;;;;;;-145.69;64.11;52282.00;5133800;27;20199;-81
2024/01/18 04:21:15;;;;;;;3.43;1.10;;;;;;;-145.69;64.57;52285.97;5133941;27;20295;-80
2024/01/18 04:23:41;;;;;;;1.60;0.97;;;;;;;-145.69;64.49;52309.72;5133197;27;20585;-80
2024/01/18 04:26:09;;;;;;;1.67;1.00;;;;;;;-145.69;64.43;52325.56;5135105;27;20200;-80
2024/01/18 04:28:36;;;;;;;1.30;1.13;;;;;;;-145.69;64.28;52287.94;5136100;27;20220;-80
2024/01/18 04:31:02;;;;;;;2.17;0.90;;;;;;;-145.69;64.01;52293.88;5133849;28;20250;-80
2024/01/18 04:33:29;;;;;;;2.00;0.80;;;;;;;-145.69;64.20;52268.13;5133534;28;20208;-80
2024/01/18 04:35:57;;;;;;;0.60;0.60;;;;;;;-145.69;64.18;52305.75;5133710;27;20232;-79
2024/01/18 04:38:29;;;;;;;1.33;0.80;;;;;;;-145.69;64.21;52321.59;5133139;27;20199;-80
2024/01/18 04:41:00;;;;;;;1.30;0.80;;;;;;;-145.69;64.26;52305.75;5132203;27;20614;-79
2024/01/18 04:43:28;;;;;;;1.05;0.90;;;;;;;-145.69;64.22;52278.03;5133849;28;20208;-80
2024/01/18 04:45:57;;;;;;;5.70;0.90;;;;;;;-145.69;64.19;52283.97;5133489;28;20236;-79
2024/01/18 04:48:24;;;;;;;1.67;1.00;;;;;;;-145.69;64.12;52291.91;5133442;28;20193;-79
2024/01/18 04:50:53;;;;;;;1.83;1.30;;;;;;;-145.69;63.52;52309.72;5133730;27;20532;-79
2024/01/18 04:53:26;;;;;;;1.40;1.00;;;;;;;-145.69;63.82;52303.78;5133197;27;20730;-79
2024/01/18 04:55:53;;;;;;;1.30;1.10;;;;;;;-145.69;64.11;52287.94;5133803;27;20650;-78
2024/01/18 04:58:20;;;;;;;0.83;0.83;;;;;;;-145.69;63.28;52333.47;5132404;27;20199;-79
2024/01/18 05:00:57;;;;;;;1.03;0.80;;;;;;;-145.69;63.15;52301.81;5133120;27;20291;-79
2024/01/18 05:03:33;;;;;;;0.70;0.70;;;;;;;-145.69;63.21;52282.00;5133396;27;20592;-79
2024/01/18 05:05:59;;;;;;;1.43;0.90;;;;;;;-145.69;63.51;52309.72;5133668;27;20233;-79
2024/01/18 05:08:34;;;;;;;2.13;1.00;;;;;;;-145.69;62.42;52315.66;5132767;28;20192;-79
2024/01/18 05:11:04;;;;;;;0.90;0.90;;;;;;;-145.69;62.28;52274.06;5136605;27;20203;-79
2024/01/18 05:13:33;;;;;;;1.33;0.83;;;;;;;-145.69;61.74;52323.59;5133768;27;20677;-78
2024/01/18 05:16:04;;;;;;;1.53;0.90;;;;;;;-145.69;61.74;52329.53;5134968;27;20224;-79
2024/01/18 05:18:39;;;;;;;1.37;0.90;;;;;;;-145.69;62.01;52276.06;5136897;27;20216;-79
2024/01/18 05:21:09;;;;;;;1.17;0.60;;;;;;;-145.69;61.46;52307.75;5130570;27;20197;-79
2024/01/18 05:23:38;;;;;;;1.00;0.90;;;;;;;-145.69;61.61;52301.81;5116668;28;20250;-79
2024/01/18 05:26:08;;;;;;;1.73;0.90;;;;;;;-145.69;61.60;52283.97;5119901;27;20284;-80
2024/01/18 05:28:37;;;;;;;0.80;0.70;;;;;;;-145.69;61.54;52282.00;5136624;27;20197;-79
2024/01/18 05:31:10;;;;;;;0.88;0.80;;;;;;;-145.69;61.39;52329.53;5136347;27;20216;-81
2024/01/18 05:33:37;;;;;;;2.90;0.67;;;;;;;-145.69;60.97;52282.00;5137091;27;20279;-80
2024/01/18 05:36:04;;;;;;;0.57;0.57;;;;;;;-145.69;60.98;52297.84;5136477;27;20724;-80
2024/01/18 05:38:33;;;;;;;0.70;0.70;;;;;;;-145.69;61.01;52325.56;5136807;27;20193;-80
2024/01/18 05:41:01;;;;;;;1.70;1.17;;;;;;;-145.69;60.63;52291.91;5136720;27;20283;-80
2024/01/18 05:43:30;;;;;;;1.50;1.00;;;;;;;-145.69;60.64;52305.75;5155863;27;20291;-79
2024/01/18 05:45:56;;;;;;;1.03;0.90;;;;;;;-145.69;60.78;52331.50;5156193;27;20573;-79
2024/01/18 05:48:34;;;;;;;3.07;1.57;;;;;;;-145.69;60.28;52317.66;5153904;27;20223;-79
2024/01/18 05:51:01;;;;;;;1.20;1.00;;;;;;;-145.69;60.06;52317.66;5136552;27;20204;-80
2024/01/18 05:53:29;;;;;;;1.53;0.90;;;;;;;-145.69;60.03;52301.81;5136431;27;20209;-80
2024/01/18 05:55:59;;;;;;;0.90;0.90;;;;;;;-145.69;60.41;52321.59;5136231;27;20289;-80
2024/01/18 05:58:25;;;;;;;0.67;0.67;;;;;;;-145.69;60.34;52291.91;5136385;27;20283;-80
2024/01/18 06:00:52;;;;;;;0.90;0.90;;;;;;;-145.69;60.06;52305.75;5139437;27;20596;-79
2024/01/18 06:03:25;;;;;;;0.60;0.60;;;;;;;-145.69;60.40;52285.97;5135997;27;20235;-80
2024/01/18 06:05:57;;;;;;;0.70;0.67;;;;;;;-145.69;59.79;52305.75;5136387;27;20197;-79
2024/01/18 06:08:24;;;;;;;0.80;0.70;;;;;;;-145.69;60.36;52309.72;5136058;27;20200;-80
2024/01/18 06:10:51;;;;;;;0.70;0.70;;;;;;;-145.69;60.07;52280.00;5136427;27;20288;-80
2024/01/18 06:13:23;;;;;;;0.60;0.60;;;;;;;-145.69;61.01;52293.88;5135398;27;20429;-79
2024/01/18 06:15:50;;;;;;;0.97;0.63;;;;;;;-145.69;60.43;52285.97;5135971;27;20341;-80
2024/01/18 06:18:23;;;;;;;0.60;0.60;;;;;;;-145.69;60.43;52278.03;5137534;27;20610;-80
2024/01/18 06:20:51;;;;;;;0.60;0.60;;;;;;;-145.69;59.79;52270.13;5135852;27;20232;-81
2024/01/18 06:23:19;;;;;;;0.70;0.70;;;;;;;-145.69;59.57;52327.53;5136133;27;20281;-80
2024/01/18 06:25:46;;;;;;;0.63;0.63;;;;;;;-145.69;59.44;52278.03;5135895;27;20212;-80
2024/01/18 06:28:13;;;;;;;1.63;0.70;;;;;;;-145.69;59.69;52272.09;5134484;27;20295;-80
2024/01/18 06:30:43;;;;;;;0.80;0.70;;;;;;;-145.69;59.19;52278.03;5135852;27;20200;-80
2024/01/18 06:33:15;;;;;;;0.73;0.70;;;;;;;-145.69;59.29;52309.72;5135175;27;20200;-80
2024/01/18 06:35:44;;;;;;;0.50;0.50;;;;;;;-145.69;59.89;52293.88;5135596;27;20232;-80
2024/01/18 06:38:12;;;;;;;0.60;0.60;;;;;;;-145.69;59.41;52283.97;5135593;27;20223;-80
2024/01/18 06:40:47;;;;;;;0.57;0.57;;;;;;;-145.69;58.84;52276.06;5137673;27;20271;-80
2024/01/18 06:43:14;;;;;;;0.50;0.50;;;;;;;-145.69;58.99;52317.66;5135173;27;20253;-80
2024/01/18 06:45:40;;;;;;;0.70;0.70;;;;;;;-145.69;59.38;52297.84;5134835;27;20196;-79
2024/01/18 06:48:12;;;;;;;0.77;0.77;;;;;;;-145.69;58.78;52321.59;5134778;27;20782;-79
2024/01/18 06:50:39;;;;;;;0.80;0.60;;;;;;;-145.69;59.60;52291.91;5135588;27;20230;-81
2024/01/18 06:53:06;;;;;;;0.70;0.70;;;;;;;-145.69;58.71;52321.59;5135404;27;20291;-80
2024/01/18 06:55:40;;;;;;;1.10;0.90;;;;;;;-145.69;59.11;52297.84;5135026;27;20259;-80
2024/01/18 06:58:08;;;;;;;0.90;0.90;;;;;;;-145.69;59.33;52270.13;5135092;27;20714;-79
2024/01/18 07:00:34;;;;;;;0.70;0.70;;;;;;;-145.69;59.49;52305.75;5135014;27;20215;-79
2024/01/18 07:03:08;;;;;;;2.30;0.60;;;;;;;-145.69;59.54;52283.97;5139383;27;20192;-79
2024/01/18 07:05:34;;;;;;;1.07;0.80;;;;;;;-145.69;59.40;52313.69;5148932;27;20224;-79
2024/01/18 07:08:01;;;;;;;1.80;1.03;;;;;;;-145.69;59.52;52268.13;5134886;27;20197;-79
2024/01/18 07:10:39;;;;;;;1.43;1.00;;;;;;;-145.69;59.28;52272.09;5135117;27;20208;-79
2024/01/18 07:13:10;;;;;;;1.07;0.97;;;;;;;-145.69;59.73;52333.47;5135017;27;20231;-81
2024/01/18 07:15:39;;;;;;;0.63;0.63;;;;;;;-145.69;60.02;52301.81;5134344;27;20269;-78
2024/01/18 07:18:07;;;;;;;0.60;0.60;;;;;;;-145.69;60.10;52291.91;5134937;27;20561;-79
2024/01/18 07:20:34;;;;;;;1.10;0.80;;;;;;;-145.69;60.47;52305.75;5134792;27;20193;-79
2024/01/18 07:23:01;;;;;;;0.70;0.70;;;;;;;-145.69;60.13;52301.81;5134578;27;20704;-79
2024/01/18 07:25:35;;;;;;;0.90;0.90;;;;;;;-145.69;60.46;52299.81;5134302;27;20193;-81
2024/01/18 07:28:04;;;;;;;1.33;0.70;;;;;;;-145.69;61.00;52291.91;5134360;27;20199;-80
2024/01/18 07:30:44;;;;;;;1.47;0.63;;;;;;;-145.69;61.68;52283.97;5117654;27;20208;-81
2024/01/18 07:33:12;;;;;;;0.60;0.60;;;;;;;-145.69;61.21;52301.81;5114096;28;20197;-79
2024/01/18 07:35:42;;;;;;;0.60;0.60;;;;;;;-145.69;61.46;52293.88;5127433;27;20285;-79
2024/01/18 07:38:22;;;;;;;0.55;0.55;;;;;;;-145.69;62.10;52321.59;5133813;27;20201;-81
2024/01/18 07:40:54;;;;;;;0.70;0.70;;;;;;;-145.69;62.17;52283.97;5134307;27;20213;-80
2024/01/18 07:43:20;;;;;;;0.57;0.57;;;;;;;-145.69;62.49;52299.81;5134488;27;20205;-80
2024/01/18 07:45:55;;;;;;;0.60;0.60;;;;;;;-145.69;62.29;52280.00;5134094;27;20193;-81
2024/01/18 07:48:25;;;;;;;0.60;0.60;;;;;;;-145.69;62.08;52282.00;5134285;27;20227;-81
2024/01/18 07:50:54;;;;;;;5.23;3.10;;;;;;;-145.69;63.00;52246.34;5134381;27;20207;-80
2024/01/18 07:53:26;;;;;;;1.10;1.10;;;;;;;-145.69;63.24;52309.72;5133761;27;20197;-80
2024/01/18 07:55:53;;;;;;;0.70;0.70;;;;;;;-145.69;63.00;52278.03;5133912;27;20226;-80
2024/01/18 07:58:19;;;;;;;0.70;0.70;;;;;;;-145.69;63.26;52285.97;5133246;27;20713;-81
2024/01/18 08:00:53;;;;;;;1.20;0.90;;;;;;;-145.69;63.19;52299.81;5134115;27;20277;-80
2024/01/18 08:03:24;;;;;;;0.70;0.70;;;;;;;-145.69;62.72;52285.97;5113338;28;20450;-81
2024/01/18 08:05:50;;;;;;;0.60;0.60;;;;;;;-145.69;63.59;52293.88;5120655;27;20449;-80
2024/01/18 08:08:20;;;;;;;0.70;0.70;;;;;;;-145.69;63.19;52274.06;5133919;27;20663;-81
2024/01/18 08:10:46;;;;;;;0.50;0.50;;;;;;;-145.69;62.75;52278.03;5133811;27;20207;-80
2024/01/18 08:13:13;;;;;;;0.70;0.70;;;;;;;-145.69;62.76;52303.78;5134000;27;20223;-80
2024/01/18 08:15:41;;;;;;;0.70;0.70;;;;;;;-145.69;62.53;52282.00;5133946;27;20303;-80
2024/01/18 08:18:08;;;;;;;0.70;0.70;;;;;;;-145.69;62.55;52266.16;5133920;27;20295;-80
2024/01/18 08:20:35;;;;;;;0.70;0.70;;;;;;;-145.69;62.01;52283.97;5133532;27;20199;-80
2024/01/18 08:23:05;;;;;;;0.60;0.60;;;;;;;-145.69;62.09;52270.13;5132401;27;20568;-80
2024/01/18 08:25:31;;;;;;;0.70;0.70;;;;;;;-145.69;62.31;52331.50;5133884;28;20200;-80
2024/01/18 08:27:58;;;;;;;0.67;0.67;;;;;;;-145.69;62.12;52283.97;5133705;27;20563;-80
2024/01/18 08:30:25;;;;;;;0.60;0.60;;;;;;;-145.69;62.27;52272.09;5133745;27;20605;-79
2024/01/18 08:32:51;;;;;;;0.67;0.67;;;;;;;-145.69;61.84;52283.97;5133674;28;20235;-80
2024/01/18 08:35:20;;;;;;;0.50;0.50;;;;;;;-145.69;62.81;52303.78;5133192;28;20193;-80
2024/01/18 08:37:47;;;;;;;0.50;0.50;;;;;;;-145.69;62.49;52291.91;5133896;27;20228;-79
2024/01/18 08:40:14;;;;;;;0.60;0.60;;;;;;;-145.69;62.84;52303.78;5133678;27;20198;-79
2024/01/18 08:42:43;;;;;;;0.67;0.67;;;;;;;-145.69;62.60;52305.75;5133572;27;20662;-80
2024/01/18 08:45:10;;;;;;;0.60;0.60;;;;;;;-145.69;62.92;52268.13;5133712;27;20284;-80
2024/01/18 08:47:36;;;;;;;0.50;0.50;;;;;;;-145.69;63.19;52307.75;5132918;27;20216;-80
2024/01/18 08:50:03;;;;;;;0.67;0.67;;;;;;;-145.69;62.74;52293.88;5134251;27;20818;-81
2024/01/18 08:52:31;;;;;;;0.60;0.60;;;;;;;-145.69;63.53;52309.72;5137756;27;20192;-80
2024/01/18 08:54:58;;;;;;;0.60;0.60;;;;;;;-145.69;63.39;52282.00;5136185;27;20600;-81
2024/01/18 08:57:25;;;;;;;0.63;0.63;;;;;;;-145.69;63.76;52319.63;5137888;27;20224;-80
2024/01/18 08:59:51;;;;;;;1.23;0.60;;;;;;;-145.69;63.81;52305.75;5137471;27;20254;-80
2024/01/18 09:02:18;;;;;;;2.20;0.73;;;;;;;-145.69;63.59;52276.06;5137055;27;20196;-81
2024/01/18 09:04:45;;;;;;;0.70;0.70;;;;;;;-145.69;63.39;52274.06;5137343;27;20203;-80
2024/01/18 09:07:11;;;;;;;0.80;0.80;;;;;;;-145.69;62.76;52285.97;5136634;27;20608;-79
2024/01/18 09:09:39;;;;;;;0.70;0.70;;;;;;;-145.69;62.96;52293.88;5116867;28;20221;-79
2024/01/18 09:12:06;;;;;;;1.07;0.70;;;;;;;-145.69;62.93;52313.69;5136172;27;20196;-78
2024/01/18 09:14:32;;;;;;;0.70;0.70;;;;;;;-145.69;63.28;52258.22;5137312;27;20297;-78
2024/01/18 09:16:59;;;;;;;0.70;0.70;;;;;;;-145.69;62.96;52301.81;5137320;27;20224;-78
2024/01/18 09:19:25;;;;;;;0.40;0.40;;;;;;;-145.69;62.87;52283.97;5137475;27;20204;-80
2024/01/18 09:21:52;;;;;;;0.60;0.50;;;;;;;-145.69;62.62;52270.13;5136821;27;20197;-79
2024/01/18 09:24:19;;;;;;;0.63;0.60;;;;;;;-145.69;62.84;52282.00;5135192;27;20208;-79
2024/01/18 09:26:47;;;;;;;1.23;0.80;;;;;;;-145.69;62.47;52280.00;5126010;27;20217;-79
2024/01/18 09:29:13;;;;;;;1.30;0.80;;;;;;;-145.69;62.32;52270.13;5137175;27;20222;-79
2024/01/18 09:31:40;;;;;;;0.73;0.73;;;;;;;-145.69;61.98;52274.06;5136886;27;20253;-80
2024/01/18 09:34:06;;;;;;;0.73;0.73;;;;;;;-145.69;61.76;52272.09;5137095;27;20203;-80
2024/01/18 09:36:33;;;;;;;1.75;0.60;;;;;;;-145.69;61.65;52305.75;5136565;27;20682;-80
2024/01/18 09:38:59;;;;;;;0.60;0.60;;;;;;;-145.69;62.04;52276.06;5136628;27;20197;-78
2024/01/18 09:41:27;;;;;;;0.50;0.50;;;;;;;-145.69;61.75;52280.00;5133191;27;20309;-80
2024/01/18 09:44:03;;;;;;;0.60;0.60;;;;;;;-145.69;61.19;52282.00;5116255;28;20674;-79
2024/01/18 09:46:30;;;;;;;0.50;0.50;;;;;;;-145.69;60.97;52272.09;5116028;28;20233;-81
2024/01/18 09:48:57;;;;;;;0.40;0.40;;;;;;;-145.69;62.03;52297.84;5115066;28;20427;-81
2024/01/18 09:51:24;;;;;;;0.60;0.60;;;;;;;-145.69;60.83;52256.25;5123583;27;20547;-80
2024/01/18 09:53:54;;;;;;;0.50;0.50;;;;;;;-145.69;60.34;52244.38;5136334;27;20192;-79
2024/01/18 09:56:23;;;;;;;0.57;0.50;;;;;;;-145.69;60.46;52260.22;5135947;27;20582;-80
2024/01/18 09:58:50;;;;;;;1.70;0.60;;;;;;;-145.69;59.87;52254.28;5135912;27;20569;-80
2024/01/18 10:01:20;;;;;;;0.80;0.80;;;;;;;-145.69;59.51;52258.22;5135141;27;20241;-79
2024/01/18 10:03:47;;;;;;;0.60;0.60;;;;;;;-145.69;59.52;52254.28;5135826;27;20193;-79
2024/01/18 10:06:13;;;;;;;0.65;0.65;;;;;;;-145.69;59.38;52240.41;5136132;27;20185;-81
2024/01/18 10:08:40;;;;;;;0.57;0.57;;;;;;;-145.69;58.81;52250.31;5136217;27;20201;-78
2024/01/18 10:11:06;;;;;;;0.88;0.55;;;;;;;-145.69;58.15;52222.59;5135590;27;20679;-80
2024/01/18 10:13:49;;;;;;;0.60;0.60;;;;;;;-145.69;57.60;52228.53;5135936;27;20624;-80
2024/01/18 10:16:28;;;;;;;0.50;0.50;;;;;;;-145.69;56.72;52240.41;5136022;27;20322;-80
2024/01/18 10:18:55;;;;;;;0.88;0.50;;;;;;;-145.69;56.70;52250.31;5136447;27;20200;-79
2024/01/18 10:21:23;;;;;;;0.40;0.40;;;;;;;-145.69;56.33;52248.34;5135675;27;20189;-79
2024/01/18 10:23:50;;;;;;;0.40;0.40;;;;;;;-145.69;55.49;52258.22;5136013;27;20601;-79
2024/01/18 10:26:17;;;;;;;0.40;0.40;;;;;;;-145.69;56.65;52262.19;5134563;27;20433;-79
2024/01/18 10:28:44;;;;;;;0.43;0.43;;;;;;;-145.69;55.52;52250.31;5135928;27;20200;-79
2024/01/18 10:31:10;;;;;;;0.70;0.70;;;;;;;-145.69;55.71;52246.34;5135784;27;20196;-77
2024/01/18 10:33:38;;;;;;;0.85;0.70;;;;;;;-145.69;55.22;52234.47;5136014;27;20223;-79
2024/01/18 10:36:05;;;;;;;1.42;1.08;;;;;;;-145.69;55.12;52244.38;5135563;27;20216;-80
2024/01/18 10:38:32;;;;;;;0.55;0.55;;;;;;;-145.69;55.39;52278.03;5135567;27;20240;-79
2024/01/18 10:41:00;;;;;;;0.98;0.90;;;;;;;-145.69;55.07;52262.19;5135317;27;20308;-80
2024/01/18 10:43:30;;;;;;;0.70;0.70;;;;;;;-145.69;55.14;52258.22;5135379;27;20196;-79
2024/01/18 10:45:56;;;;;;;3.55;0.80;;;;;;;-145.69;56.11;52240.41;5135858;27;20212;-80
2024/01/18 10:48:23;;;;;;;1.35;0.57;;;;;;;-145.69;56.90;52262.19;5135225;27;20233;-80
2024/01/18 10:50:52;;;;;;;0.60;0.60;;;;;;;-145.69;57.44;52264.16;5135425;27;20193;-80
2024/01/18 10:53:20;;;;;;;0.50;0.50;;;;;;;-145.69;57.35;52250.31;5135455;27;20703;-79
2024/01/18 10:55:47;;;;;;;0.77;0.75;;;;;;;-145.69;57.74;52250.31;5135087;27;20228;-79
2024/01/18 10:58:13;;;;;;;1.40;1.00;;;;;;;-145.69;58.01;52250.31;5135285;27;20204;-80
2024/01/18 11:00:40;;;;;;;0.93;0.55;;;;;;;-145.69;58.18;52254.28;5135105;27;20196;-81
2024/01/18 11:03:07;;;;;;;0.50;0.50;;;;;;;-145.69;58.68;52272.09;5135187;27;20195;-79
2024/01/18 11:05:34;;;;;;;1.67;1.10;;;;;;;-145.69;59.00;52230.50;5135094;27;20196;-80
2024/01/18 11:08:04;;;;;;;0.60;0.60;;;;;;;-145.69;59.51;52260.22;5135701;27;20196;-79
2024/01/18 11:10:32;;;;;;;0.70;0.70;;;;;;;-145.69;60.23;52266.16;5134949;27;20647;-79
2024/01/18 11:12:59;;;;;;;2.30;0.65;;;;;;;-145.69;60.43;52262.19;5134469;27;20208;-80
2024/01/18 11:15:26;;;;;;;0.85;0.60;;;;;;;-145.69;60.72;52268.13;5134986;27;20197;-80
2024/01/18 11:17:54;;;;;;;2.63;1.50;;;;;;;-145.69;61.62;52305.75;5134795;27;20586;-80
2024/01/18 11:20:21;;;;;;;1.48;1.20;;;;;;;-145.69;61.41;52240.41;5117977;27;20201;-79